sensor_id;sensor_type;location;lat;lon;timestamp;pressure;altitude;pressure_sealevel;temperature;humidity
8717;BME280;4395;48.554;8.820;2023-11-22T00:01:35;96132.66;;;6.35;83.71
8717;BME280;4395;48.554;8.820;2023-11-22T00:03:39;96133.81;;;6.39;84.10
8717;BME280;4395;48.554;8.820;2023-11-22T00:05:42;96131.34;;;6.44;83.64
8717;BME280;4395;48.554;8.820;2023-11-22T00:07:46;96130.97;;;6.41;83.52
8717;BME280;4395;48.554;8.820;2023-11-22T00:09:49;96129.53;;;6.45;83.77
8717;BME280;4395;48.554;8.820;2023-11-22T00:11:52;96123.47;;;6.39;83.37
8717;BME280;4395;48.554;8.820;2023-11-22T00:13:54;96125.59;;;6.42;83.76
8717;BME280;4395;48.554;8.820;2023-11-22T00:15:59;96129.19;;;6.41;83.77
8717;BME280;4395;48.554;8.820;2023-11-22T00:18:02;96134.13;;;6.43;83.93
8717;BME280;4395;48.554;8.820;2023-11-22T00:20:07;96133.72;;;6.46;83.83
8717;BME280;4395;48.554;8.820;2023-11-22T00:22:10;96134.28;;;6.48;83.75
8717;BME280;4395;48.554;8.820;2023-11-22T00:24:16;96130.31;;;6.45;83.46
8717;BME280;4395;48.554;8.820;2023-11-22T00:26:20;96125.72;;;6.47;83.71
8717;BME280;4395;48.554;8.820;2023-11-22T00:28:29;96136.06;;;6.47;83.69
8717;BME280;4395;48.554;8.820;2023-11-22T00:53:35;96140.28;;;6.60;83.25
8717;BME280;4395;48.554;8.820;2023-11-22T00:55:38;96139.47;;;6.60;83.55
8717;BME280;4395;48.554;8.820;2023-11-22T00:57:41;96134.09;;;6.61;83.42
8717;BME280;4395;48.554;8.820;2023-11-22T00:59:45;96139.84;;;6.63;83.34
8717;BME280;4395;48.554;8.820;2023-11-22T01:01:47;96142.63;;;6.62;83.44
8717;BME280;4395;48.554;8.820;2023-11-22T01:03:50;96154.16;;;6.36;83.26
8717;BME280;4395;48.554;8.820;2023-11-22T01:05:53;96140.72;;;5.97;82.49
8717;BME280;4395;48.554;8.820;2023-11-22T01:07:56;96157.22;;;5.60;82.70
8717;BME280;4395;48.554;8.820;2023-11-22T01:10:00;96165.75;;;5.42;83.17
8717;BME280;4395;48.554;8.820;2023-11-22T01:12:02;96172.97;;;5.33;83.46
8717;BME280;4395;48.554;8.820;2023-11-22T01:14:06;96172.31;;;5.20;83.50
8717;BME280;4395;48.554;8.820;2023-11-22T01:16:10;96171.09;;;4.97;83.34
8717;BME280;4395;48.554;8.820;2023-11-22T01:18:14;96176.03;;;4.81;83.53
8717;BME280;4395;48.554;8.820;2023-11-22T01:20:17;96178.31;;;4.64;83.95
8717;BME280;4395;48.554;8.820;2023-11-22T01:22:20;96181.16;;;4.56;83.94
8717;BME280;4395;48.554;8.820;2023-11-22T01:24:23;96178.97;;;4.53;84.11
8717;BME280;4395;48.554;8.820;2023-11-22T01:26:28;96182.56;;;4.52;84.43
8717;BME280;4395;48.554;8.820;2023-11-22T01:28:32;96182.56;;;4.52;84.36
8717;BME280;4395;48.554;8.820;2023-11-22T01:30:35;96187.38;;;4.42;84.40
8717;BME280;4395;48.554;8.820;2023-11-22T01:32:39;96186.97;;;4.45;84.30
8717;BME280;4395;48.554;8.820;2023-11-22T01:34:41;96192.53;;;4.42;84.13
8717;BME280;4395;48.554;8.820;2023-11-22T01:36:43;96192.78;;;4.33;84.04
8717;BME280;4395;48.554;8.820;2023-11-22T01:38:46;96198.34;;;4.30;84.04
8717;BME280;4395;48.554;8.820;2023-11-22T01:40:51;96198.94;;;4.32;84.06
8717;BME280;4395;48.554;8.820;2023-11-22T01:42:55;96199.34;;;4.29;83.72
8717;BME280;4395;48.554;8.820;2023-11-22T01:44:58;96199.75;;;4.26;84.10
8717;BME280;4395;48.554;8.820;2023-11-22T01:47:01;96204.75;;;4.21;84.12
8717;BME280;4395;48.554;8.820;2023-11-22T01:49:04;96215.84;;;4.22;84.34
8717;BME280;4395;48.554;8.820;2023-11-22T01:51:06;96217.19;;;4.24;84.55
8717;BME280;4395;48.554;8.820;2023-11-22T01:53:12;96221.16;;;4.27;84.70
8717;BME280;4395;48.554;8.820;2023-11-22T01:55:15;96225.16;;;4.16;84.98
8717;BME280;4395;48.554;8.820;2023-11-22T01:57:19;96224.56;;;4.14;84.96
8717;BME280;4395;48.554;8.820;2023-11-22T01:59:24;96228.56;;;4.10;85.08
8717;BME280;4395;48.554;8.820;2023-11-22T02:01:27;96236.31;;;4.10;84.81
8717;BME280;4395;48.554;8.820;2023-11-22T02:03:30;96240.31;;;3.93;84.50
8717;BME280;4395;48.554;8.820;2023-11-22T02:05:33;96247.06;;;3.94;84.61
8717;BME280;4395;48.554;8.820;2023-11-22T02:07:36;96244.88;;;3.91;84.37
8717;BME280;4395;48.554;8.820;2023-11-22T02:09:39;96245.28;;;3.75;83.74
8717;BME280;4395;48.554;8.820;2023-11-22T02:11:42;96251.06;;;3.63;83.76
8717;BME280;4395;48.554;8.820;2023-11-22T02:13:47;96246.94;;;3.49;83.40
8717;BME280;4395;48.554;8.820;2023-11-22T02:15:51;96242.38;;;3.45;83.72
8717;BME280;4395;48.554;8.820;2023-11-22T02:17:54;96247.72;;;3.43;83.81
8717;BME280;4395;48.554;8.820;2023-11-22T02:20:10;96252.31;;;3.35;83.88
8717;BME280;4395;48.554;8.820;2023-11-22T02:22:14;96255.47;;;3.30;84.11
8717;BME280;4395;48.554;8.820;2023-11-22T02:24:19;96248.34;;;3.25;84.12
8717;BME280;4395;48.554;8.820;2023-11-22T02:26:23;96265.75;;;3.30;84.28
8717;BME280;4395;48.554;8.820;2023-11-22T02:28:26;96269.34;;;3.36;84.43
8717;BME280;4395;48.554;8.820;2023-11-22T02:30:29;96271.28;;;3.40;84.38
8717;BME280;4395;48.554;8.820;2023-11-22T02:32:31;96267.34;;;3.38;84.36
8717;BME280;4395;48.554;8.820;2023-11-22T02:34:34;96270.13;;;3.36;84.15
8717;BME280;4395;48.554;8.820;2023-11-22T02:36:37;96271.72;;;3.37;84.40
8717;BME280;4395;48.554;8.820;2023-11-22T02:38:41;96272.88;;;3.35;84.46
8717;BME280;4395;48.554;8.820;2023-11-22T02:40:47;96275.28;;;3.36;84.33
8717;BME280;4395;48.554;8.820;2023-11-22T02:42:53;96275.28;;;3.36;84.47
8717;BME280;4395;48.554;8.820;2023-11-22T02:44:57;96267.34;;;3.31;84.47
8717;BME280;4395;48.554;8.820;2023-11-22T02:47:00;96271.88;;;3.29;84.30
8717;BME280;4395;48.554;8.820;2023-11-22T02:49:03;96281.00;;;3.25;84.52
8717;BME280;4395;48.554;8.820;2023-11-22T02:51:05;96273.69;;;3.22;84.64
8717;BME280;4395;48.554;8.820;2023-11-22T02:53:09;96279.81;;;3.28;84.77
8717;BME280;4395;48.554;8.820;2023-11-22T02:55:11;96279.63;;;3.36;84.70
8717;BME280;4395;48.554;8.820;2023-11-22T02:57:15;96282.41;;;3.34;84.29
8717;BME280;4395;48.554;8.820;2023-11-22T02:59:18;96279.81;;;3.34;84.21
8717;BME280;4395;48.554;8.820;2023-11-22T03:01:20;96278.22;;;3.33;84.05
8717;BME280;4395;48.554;8.820;2023-11-22T03:03:23;96278.00;;;3.15;84.21
8717;BME280;4395;48.554;8.820;2023-11-22T03:05:26;96290.31;;;3.13;83.73
8717;BME280;4395;48.554;8.820;2023-11-22T03:07:29;96289.50;;;3.06;83.92
8717;BME280;4395;48.554;8.820;2023-11-22T03:09:32;96289.69;;;2.98;83.95
8717;BME280;4395;48.554;8.820;2023-11-22T03:11:35;96295.81;;;2.97;83.94
8717;BME280;4395;48.554;8.820;2023-11-22T03:13:39;96302.94;;;2.88;83.69
8717;BME280;4395;48.554;8.820;2023-11-22T03:15:42;96293.00;;;2.78;83.12
8717;BME280;4395;48.554;8.820;2023-11-22T03:17:44;96297.91;;;2.67;83.05
8717;BME280;4395;48.554;8.820;2023-11-22T03:19:47;96305.25;;;2.63;83.32
8717;BME280;4395;48.554;8.820;2023-11-22T03:21:50;96312.72;;;2.58;83.55
8717;BME280;4395;48.554;8.820;2023-11-22T03:23:53;96314.09;;;2.54;83.51
8717;BME280;4395;48.554;8.820;2023-11-22T03:25:56;96320.25;;;2.60;83.71
8717;BME280;4395;48.554;8.820;2023-11-22T03:27:59;96312.34;;;2.61;83.27
8717;BME280;4395;48.554;8.820;2023-11-22T03:30:05;96324.72;;;2.44;81.99
8717;BME280;4395;48.554;8.820;2023-11-22T03:32:13;96327.66;;;2.35;81.84
8717;BME280;4395;48.554;8.820;2023-11-22T03:34:15;96328.25;;;2.37;82.03
8717;BME280;4395;48.554;8.820;2023-11-22T03:36:18;96339.16;;;2.39;81.42
8717;BME280;4395;48.554;8.820;2023-11-22T03:38:21;96339.50;;;2.29;81.21
8717;BME280;4395;48.554;8.820;2023-11-22T03:40:25;96330.56;;;2.25;81.60
8717;BME280;4395;48.554;8.820;2023-11-22T03:42:28;96345.13;;;2.11;81.95
8717;BME280;4395;48.554;8.820;2023-11-22T03:44:30;96343.81;;;1.94;82.02
8717;BME280;4395;48.554;8.820;2023-11-22T03:46:34;96345.41;;;1.95;82.21
8717;BME280;4395;48.554;8.820;2023-11-22T03:48:37;96355.50;;;1.97;82.64
8717;BME280;4395;48.554;8.820;2023-11-22T03:50:40;96350.34;;;1.90;83.09
8717;BME280;4395;48.554;8.820;2023-11-22T03:52:42;96351.50;;;1.88;83.01
8717;BME280;4395;48.554;8.820;2023-11-22T03:54:44;96358.25;;;1.95;83.63
8717;BME280;4395;48.554;8.820;2023-11-22T03:56:47;96359.84;;;1.96;83.55
8717;BME280;4395;48.554;8.820;2023-11-22T03:58:50;96380.78;;;1.93;83.81
8717;BME280;4395;48.554;8.820;2023-11-22T04:00:52;96376.22;;;1.95;83.90
8717;BME280;4395;48.554;8.820;2023-11-22T04:02:56;96367.50;;;1.90;83.91
8717;BME280;4395;48.554;8.820;2023-11-22T04:05:01;96379.78;;;1.94;84.01
8717;BME280;4395;48.554;8.820;2023-11-22T04:07:03;96378.56;;;1.90;84.20
8717;BME280;4395;48.554;8.820;2023-11-22T04:09:06;96376.75;;;1.84;84.11
8717;BME280;4395;48.554;8.820;2023-11-22T04:11:09;96388.94;;;1.75;83.95
8717;BME280;4395;48.554;8.820;2023-11-22T04:13:12;96390.84;;;1.67;84.05
8717;BME280;4395;48.554;8.820;2023-11-22T04:15:16;96392.03;;;1.71;84.12
8717;BME280;4395;48.554;8.820;2023-11-22T04:17:19;96396.81;;;1.74;83.82
8717;BME280;4395;48.554;8.820;2023-11-22T04:19:23;96397.56;;;1.68;83.76
8717;BME280;4395;48.554;8.820;2023-11-22T04:21:27;96396.81;;;1.74;83.97
8717;BME280;4395;48.554;8.820;2023-11-22T04:23:30;96393.69;;;1.78;83.59
8717;BME280;4395;48.554;8.820;2023-11-22T04:25:33;96410.69;;;1.79;83.13
8717;BME280;4395;48.554;8.820;2023-11-22T04:27:36;96407.25;;;1.72;82.82
8717;BME280;4395;48.554;8.820;2023-11-22T04:29:39;96399.38;;;1.74;82.75
8717;BME280;4395;48.554;8.820;2023-11-22T04:31:42;96404.59;;;1.80;83.19
8717;BME280;4395;48.554;8.820;2023-11-22T04:33:44;96415.66;;;1.81;82.94
8717;BME280;4395;48.554;8.820;2023-11-22T04:35:49;96421.97;;;1.85;82.74
8717;BME280;4395;48.554;8.820;2023-11-22T04:37:52;96420.28;;;1.92;83.37
8717;BME280;4395;48.554;8.820;2023-11-22T04:39:56;96423.50;;;2.01;83.09
8717;BME280;4395;48.554;8.820;2023-11-22T04:41:59;96421.91;;;2.00;82.45
8717;BME280;4395;48.554;8.820;2023-11-22T04:44:02;96415.72;;;1.94;82.51
8717;BME280;4395;48.554;8.820;2023-11-22T04:46:05;96432.13;;;1.93;82.63
8717;BME280;4395;48.554;8.820;2023-11-22T04:48:08;96437.66;;;1.97;82.99
8717;BME280;4395;48.554;8.820;2023-11-22T04:50:11;96438.84;;;1.94;82.93
8717;BME280;4395;48.554;8.820;2023-11-22T04:52:15;96445.19;;;1.98;83.50
8717;BME280;4395;48.554;8.820;2023-11-22T04:54:18;96437.13;;;2.01;83.23
8717;BME280;4395;48.554;8.820;2023-11-22T04:56:21;96443.09;;;2.08;83.60
8717;BME280;4395;48.554;8.820;2023-11-22T04:58:24;96444.94;;;2.14;83.19
8717;BME280;4395;48.554;8.820;2023-11-22T05:00:27;96453.94;;;2.04;83.03
8717;BME280;4395;48.554;8.820;2023-11-22T05:02:29;96458.03;;;1.98;83.29
8717;BME280;4395;48.554;8.820;2023-11-22T05:04:31;96462.19;;;1.99;83.62
8717;BME280;4395;48.554;8.820;2023-11-22T05:06:34;96458.09;;;2.05;83.84
8717;BME280;4395;48.554;8.820;2023-11-22T05:08:39;96456.69;;;2.02;83.56
8717;BME280;4395;48.554;8.820;2023-11-22T05:10:42;96457.06;;;1.99;83.54
8717;BME280;4395;48.554;8.820;2023-11-22T05:12:45;96460.97;;;1.95;83.54
8717;BME280;4395;48.554;8.820;2023-11-22T05:14:48;96461.34;;;1.92;83.59
8717;BME280;4395;48.554;8.820;2023-11-22T05:16:51;96464.91;;;1.91;83.27
8717;BME280;4395;48.554;8.820;2023-11-22T05:18:54;96472.59;;;1.91;83.52
8717;BME280;4395;48.554;8.820;2023-11-22T05:20:57;96473.22;;;1.93;83.45
8717;BME280;4395;48.554;8.820;2023-11-22T05:22:59;96464.16;;;1.97;83.45
8717;BME280;4395;48.554;8.820;2023-11-22T05:25:05;96476.81;;;1.99;83.01
8717;BME280;4395;48.554;8.820;2023-11-22T05:27:08;96482.75;;;1.99;83.05
8717;BME280;4395;48.554;8.820;2023-11-22T05:29:11;96486.09;;;2.00;82.75
8717;BME280;4395;48.554;8.820;2023-11-22T05:31:15;96473.59;;;1.90;82.12
8717;BME280;4395;48.554;8.820;2023-11-22T05:33:17;96481.66;;;1.87;81.90
8717;BME280;4395;48.554;8.820;2023-11-22T05:35:20;96493.63;;;1.80;81.13
8717;BME280;4395;48.554;8.820;2023-11-22T05:37:22;96495.59;;;1.78;80.94
8717;BME280;4395;48.554;8.820;2023-11-22T05:39:26;96504.28;;;1.77;81.20
8717;BME280;4395;48.554;8.820;2023-11-22T05:41:29;96495.59;;;1.78;81.01
8717;BME280;4395;48.554;8.820;2023-11-22T05:43:32;96499.50;;;1.74;80.92
8717;BME280;4395;48.554;8.820;2023-11-22T05:45:38;96502.59;;;1.69;80.82
8717;BME280;4395;48.554;8.820;2023-11-22T05:47:41;96499.25;;;1.69;80.85
8717;BME280;4395;48.554;8.820;2023-11-22T05:49:44;96501.34;;;1.80;81.19
8717;BME280;4395;48.554;8.820;2023-11-22T05:51:46;96498.38;;;1.83;80.73
8717;BME280;4395;48.554;8.820;2023-11-22T05:53:49;96501.09;;;1.75;79.51
8717;BME280;4395;48.554;8.820;2023-11-22T05:55:51;96504.63;;;1.74;79.96
8717;BME280;4395;48.554;8.820;2023-11-22T05:57:56;96507.31;;;1.66;79.92
8717;BME280;4395;48.554;8.820;2023-11-22T05:59:58;96506.22;;;1.75;80.79
8717;BME280;4395;48.554;8.820;2023-11-22T06:02:00;96513.78;;;1.83;80.63
8717;BME280;4395;48.554;8.820;2023-11-22T06:04:04;96512.81;;;1.84;80.59
8717;BME280;4395;48.554;8.820;2023-11-22T06:06:07;96511.47;;;1.88;80.67
8717;BME280;4395;48.554;8.820;2023-11-22T06:08:09;96513.78;;;1.83;80.23
8717;BME280;4395;48.554;8.820;2023-11-22T06:10:12;96516.13;;;1.78;80.28
8717;BME280;4395;48.554;8.820;2023-11-22T06:12:16;96525.00;;;1.75;80.16
8717;BME280;4395;48.554;8.820;2023-11-22T06:14:19;96526.22;;;1.79;80.34
8717;BME280;4395;48.554;8.820;2023-11-22T06:16:22;96532.16;;;1.80;80.71
8717;BME280;4395;48.554;8.820;2023-11-22T06:18:24;96542.41;;;1.80;79.69
8717;BME280;4395;48.554;8.820;2023-11-22T06:20:31;96550.47;;;1.77;79.66
8717;BME280;4395;48.554;8.820;2023-11-22T06:22:34;96543.31;;;1.72;78.93
8717;BME280;4395;48.554;8.820;2023-11-22T06:24:42;96543.94;;;1.74;79.05
8717;BME280;4395;48.554;8.820;2023-11-22T06:26:45;96554.22;;;1.60;79.33
8717;BME280;4395;48.554;8.820;2023-11-22T06:28:48;96559.38;;;1.60;79.98
8717;BME280;4395;48.554;8.820;2023-11-22T06:30:54;96560.16;;;1.60;80.18
8717;BME280;4395;48.554;8.820;2023-11-22T06:32:57;96570.50;;;1.67;80.55
8717;BME280;4395;48.554;8.820;2023-11-22T06:35:01;96568.19;;;1.72;80.02
8717;BME280;4395;48.554;8.820;2023-11-22T06:37:05;96568.56;;;1.69;79.95
8717;BME280;4395;48.554;8.820;2023-11-22T06:39:10;96572.81;;;1.62;80.06
8717;BME280;4395;48.554;8.820;2023-11-22T06:41:15;96578.41;;;1.65;79.99
8717;BME280;4395;48.554;8.820;2023-11-22T06:43:18;96573.69;;;1.69;79.93
8717;BME280;4395;48.554;8.820;2023-11-22T06:45:21;96583.59;;;1.72;79.96
8717;BME280;4395;48.554;8.820;2023-11-22T06:47:25;96579.25;;;1.72;79.48
8717;BME280;4395;48.554;8.820;2023-11-22T06:49:28;96589.09;;;1.69;79.54
8717;BME280;4395;48.554;8.820;2023-11-22T06:51:31;96591.28;;;1.72;79.51
8717;BME280;4395;48.554;8.820;2023-11-22T06:53:34;96582.72;;;1.65;79.30
8717;BME280;4395;48.554;8.820;2023-11-22T06:55:37;96585.91;;;1.67;79.56
8717;BME280;4395;48.554;8.820;2023-11-22T06:57:40;96595.22;;;1.68;79.21
8717;BME280;4395;48.554;8.820;2023-11-22T06:59:43;96597.50;;;1.63;79.05
8717;BME280;4395;48.554;8.820;2023-11-22T07:01:46;96600.34;;;1.68;79.19
8717;BME280;4395;48.554;8.820;2023-11-22T07:03:49;96605.22;;;1.63;78.77
8717;BME280;4395;48.554;8.820;2023-11-22T07:05:53;96600.44;;;1.60;79.08
8717;BME280;4395;48.554;8.820;2023-11-22T07:07:56;96607.16;;;1.61;78.84
8717;BME280;4395;48.554;8.820;2023-11-22T07:09:59;96612.47;;;1.59;78.86
8717;BME280;4395;48.554;8.820;2023-11-22T07:12:01;96609.09;;;1.59;78.64
8717;BME280;4395;48.554;8.820;2023-11-22T07:14:07;96614.22;;;1.59;79.02
8717;BME280;4395;48.554;8.820;2023-11-22T07:16:09;96613.81;;;1.55;78.84
8717;BME280;4395;48.554;8.820;2023-11-22T07:18:12;96615.41;;;1.56;79.04
8717;BME280;4395;48.554;8.820;2023-11-22T07:20:17;96617.78;;;1.58;79.13
8717;BME280;4395;48.554;8.820;2023-11-22T07:22:20;96626.09;;;1.60;78.84
8717;BME280;4395;48.554;8.820;2023-11-22T07:24:25;96629.28;;;1.62;79.10
8717;BME280;4395;48.554;8.820;2023-11-22T07:26:28;96629.72;;;1.65;78.86
8717;BME280;4395;48.554;8.820;2023-11-22T07:28:31;96639.91;;;1.59;78.73
8717;BME280;4395;48.554;8.820;2023-11-22T07:30:37;96635.50;;;1.53;79.04
8717;BME280;4395;48.554;8.820;2023-11-22T07:32:42;96640.34;;;1.48;79.12
8717;BME280;4395;48.554;8.820;2023-11-22T07:34:46;96632.31;;;1.51;79.79
8717;BME280;4395;48.554;8.820;2023-11-22T07:36:50;96642.03;;;1.55;79.22
8717;BME280;4395;48.554;8.820;2023-11-22T07:38:53;96650.53;;;1.56;79.54
8717;BME280;4395;48.554;8.820;2023-11-22T07:40:56;96651.59;;;1.61;80.12
8717;BME280;4395;48.554;8.820;2023-11-22T07:42:59;96660.09;;;1.62;79.44
8717;BME280;4395;48.554;8.820;2023-11-22T07:45:04;96668.47;;;1.70;79.64
8717;BME280;4395;48.554;8.820;2023-11-22T07:47:07;96667.09;;;1.68;79.38
8717;BME280;4395;48.554;8.820;2023-11-22T07:49:12;96667.31;;;1.73;79.40
8717;BME280;4395;48.554;8.820;2023-11-22T07:51:16;96673.88;;;1.75;79.24
8717;BME280;4395;48.554;8.820;2023-11-22T07:53:20;96665.66;;;1.80;79.85
8717;BME280;4395;48.554;8.820;2023-11-22T07:55:23;96672.63;;;1.86;79.89
8717;BME280;4395;48.554;8.820;2023-11-22T07:57:26;96668.72;;;1.90;78.66
8717;BME280;4395;48.554;8.820;2023-11-22T07:59:28;96668.91;;;1.89;78.61
8717;BME280;4395;48.554;8.820;2023-11-22T08:01:30;96667.59;;;1.93;78.66
8717;BME280;4395;48.554;8.820;2023-11-22T08:03:33;96668.97;;;1.95;78.69
8717;BME280;4395;48.554;8.820;2023-11-22T08:05:36;96668.63;;;1.98;78.31
8717;BME280;4395;48.554;8.820;2023-11-22T08:07:42;96660.28;;;1.96;78.47
8717;BME280;4395;48.554;8.820;2023-11-22T08:09:51;96670.34;;;1.91;78.22
8717;BME280;4395;48.554;8.820;2023-11-22T08:11:53;96668.81;;;1.82;77.84
8717;BME280;4395;48.554;8.820;2023-11-22T08:13:56;96664.06;;;1.79;78.18
8717;BME280;4395;48.554;8.820;2023-11-22T08:16:00;96666.25;;;1.82;78.39
8717;BME280;4395;48.554;8.820;2023-11-22T08:18:03;96672.97;;;1.83;78.27
8717;BME280;4395;48.554;8.820;2023-11-22T08:20:08;96668.28;;;1.87;78.22
8717;BME280;4395;48.554;8.820;2023-11-22T08:22:16;96672.78;;;1.99;78.77
8717;BME280;4395;48.554;8.820;2023-11-22T08:24:19;96673.06;;;2.04;77.85
8717;BME280;4395;48.554;8.820;2023-11-22T08:26:23;96664.34;;;2.05;77.92
8717;BME280;4395;48.554;8.820;2023-11-22T08:28:27;96665.94;;;2.06;77.92
8717;BME280;4395;48.554;8.820;2023-11-22T08:30:30;96665.59;;;2.09;78.11
8717;BME280;4395;48.554;8.820;2023-11-22T08:32:37;96665.28;;;2.19;77.91
8717;BME280;4395;48.554;8.820;2023-11-22T08:34:40;96672.47;;;2.24;77.63
8717;BME280;4395;48.554;8.820;2023-11-22T08:36:43;96668.97;;;2.31;77.51
8717;BME280;4395;48.554;8.820;2023-11-22T08:38:46;96671.81;;;2.36;77.54
8717;BME280;4395;48.554;8.820;2023-11-22T08:40:49;96665.25;;;2.34;76.73
8717;BME280;4395;48.554;8.820;2023-11-22T08:42:53;96668.44;;;2.36;76.87
8717;BME280;4395;48.554;8.820;2023-11-22T08:44:56;96665.25;;;2.34;77.33
8717;BME280;4395;48.554;8.820;2023-11-22T08:46:58;96673.13;;;2.32;77.76
8717;BME280;4395;48.554;8.820;2023-11-22T08:49:01;96671.84;;;2.22;76.90
8717;BME280;4395;48.554;8.820;2023-11-22T08:51:04;96662.72;;;2.19;77.15
8717;BME280;4395;48.554;8.820;2023-11-22T08:53:09;96677.81;;;2.07;76.28
8717;BME280;4395;48.554;8.820;2023-11-22T08:55:12;96680.50;;;1.85;76.05
8717;BME280;4395;48.554;8.820;2023-11-22T08:57:16;96691.56;;;1.85;77.12
8717;BME280;4395;48.554;8.820;2023-11-22T08:59:20;96687.88;;;1.73;76.86
8717;BME280;4395;48.554;8.820;2023-11-22T09:01:23;96691.41;;;1.72;77.23
8717;BME280;4395;48.554;8.820;2023-11-22T09:03:27;96692.03;;;1.74;77.39
8717;BME280;4395;48.554;8.820;2023-11-22T09:05:30;96686.91;;;1.74;77.39
8717;BME280;4395;48.554;8.820;2023-11-22T09:07:33;96697.06;;;1.82;77.17
8717;BME280;4395;48.554;8.820;2023-11-22T09:09:36;96683.69;;;1.87;77.56
8717;BME280;4395;48.554;8.820;2023-11-22T09:11:39;96686.09;;;1.88;76.83
8717;BME280;4395;48.554;8.820;2023-11-22T09:13:42;96680.59;;;1.91;77.08
8717;BME280;4395;48.554;8.820;2023-11-22T09:15:47;96676.44;;;1.90;76.42
8717;BME280;4395;48.554;8.820;2023-11-22T09:17:49;96669.09;;;1.87;76.68
8717;BME280;4395;48.554;8.820;2023-11-22T09:19:53;96668.47;;;1.85;76.62
8717;BME280;4395;48.554;8.820;2023-11-22T09:21:57;96673.88;;;1.90;77.12
8717;BME280;4395;48.554;8.820;2023-11-22T09:24:00;96674.09;;;1.95;76.28
8717;BME280;4395;48.554;8.820;2023-11-22T09:26:04;96671.38;;;1.97;76.22
8717;BME280;4395;48.554;8.820;2023-11-22T09:28:07;96670.03;;;2.01;76.30
8717;BME280;4395;48.554;8.820;2023-11-22T09:30:11;96668.50;;;2.06;76.79
8717;BME280;4395;48.554;8.820;2023-11-22T09:32:20;96671.41;;;2.18;75.68
8717;BME280;4395;48.554;8.820;2023-11-22T09:34:22;96679.72;;;2.20;75.37
8717;BME280;4395;48.554;8.820;2023-11-22T09:36:26;96678.94;;;2.20;74.62
8717;BME280;4395;48.554;8.820;2023-11-22T09:38:30;96678.94;;;2.20;74.92
8717;BME280;4395;48.554;8.820;2023-11-22T09:40:33;96678.66;;;2.29;75.02
8717;BME280;4395;48.554;8.820;2023-11-22T09:42:37;96684.56;;;2.30;74.57
8717;BME280;4395;48.554;8.820;2023-11-22T09:44:39;96689.84;;;2.43;75.36
8717;BME280;4395;48.554;8.820;2023-11-22T09:46:42;96694.63;;;2.46;74.03
8717;BME280;4395;48.554;8.820;2023-11-22T09:48:47;96692.69;;;2.48;73.88
8717;BME280;4395;48.554;8.820;2023-11-22T09:50:57;96697.31;;;2.38;73.79
8717;BME280;4395;48.554;8.820;2023-11-22T09:53:00;96697.19;;;2.46;74.53
8717;BME280;4395;48.554;8.820;2023-11-22T09:55:05;96705.78;;;2.53;74.27
8717;BME280;4395;48.554;8.820;2023-11-22T09:57:08;96703.81;;;2.55;73.93
8717;BME280;4395;48.554;8.820;2023-11-22T09:59:12;96698.75;;;2.62;74.67
8717;BME280;4395;48.554;8.820;2023-11-22T10:01:17;96707.88;;;2.64;73.96
8717;BME280;4395;48.554;8.820;2023-11-22T10:03:19;96711.03;;;2.66;74.14
8717;BME280;4395;48.554;8.820;2023-11-22T10:05:24;96723.97;;;2.73;74.35
8717;BME280;4395;48.554;8.820;2023-11-22T10:07:30;96724.59;;;2.75;73.61
8717;BME280;4395;48.554;8.820;2023-11-22T10:09:33;96729.50;;;2.55;72.54
8717;BME280;4395;48.554;8.820;2023-11-22T10:11:38;96728.78;;;2.40;73.27
8717;BME280;4395;48.554;8.820;2023-11-22T10:13:47;96723.53;;;2.48;74.03
8717;BME280;4395;48.554;8.820;2023-11-22T10:15:50;96728.34;;;2.58;73.70
8717;BME280;4395;48.554;8.820;2023-11-22T10:17:55;96731.28;;;2.54;73.20
8717;BME280;4395;48.554;8.820;2023-11-22T10:19:57;96730.13;;;2.36;73.56
8717;BME280;4395;48.554;8.820;2023-11-22T10:22:05;96730.47;;;2.33;73.83
8717;BME280;4395;48.554;8.820;2023-11-22T10:24:09;96743.44;;;2.25;73.84
8717;BME280;4395;48.554;8.820;2023-11-22T10:26:11;96735.59;;;2.33;74.40
8717;BME280;4395;48.554;8.820;2023-11-22T10:28:15;96734.41;;;2.50;74.83
8717;BME280;4395;48.554;8.820;2023-11-22T10:30:19;96728.34;;;2.58;74.07
8717;BME280;4395;48.554;8.820;2023-11-22T10:32:22;96727.56;;;2.57;73.92
8717;BME280;4395;48.554;8.820;2023-11-22T10:34:25;96719.22;;;2.55;73.70
8717;BME280;4395;48.554;8.820;2023-11-22T10:36:29;96724.31;;;2.48;73.05
8717;BME280;4395;48.554;8.820;2023-11-22T10:38:33;96723.53;;;2.48;73.35
8717;BME280;4395;48.554;8.820;2023-11-22T10:40:37;96727.16;;;2.53;74.00
8717;BME280;4395;48.554;8.820;2023-11-22T10:42:40;96728.66;;;2.48;73.69
8717;BME280;4395;48.554;8.820;2023-11-22T10:44:44;96724.31;;;2.48;74.54
8717;BME280;4395;48.554;8.820;2023-11-22T10:46:49;96721.09;;;2.61;74.86
8717;BME280;4395;48.554;8.820;2023-11-22T10:48:54;96720.16;;;2.69;74.73
8717;BME280;4395;48.554;8.820;2023-11-22T10:50:57;96714.13;;;2.76;73.28
8717;BME280;4395;48.554;8.820;2023-11-22T10:53:06;96713.19;;;2.84;73.27
8717;BME280;4395;48.554;8.820;2023-11-22T10:55:15;96716.56;;;2.84;72.39
8717;BME280;4395;48.554;8.820;2023-11-22T10:57:19;96725.50;;;2.88;72.43
8717;BME280;4395;48.554;8.820;2023-11-22T10:59:26;96730.56;;;2.82;72.17
8717;BME280;4395;48.554;8.820;2023-11-22T11:01:31;96738.13;;;2.83;72.24
8717;BME280;4395;48.554;8.820;2023-11-22T11:03:37;96737.63;;;2.73;72.66
8717;BME280;4395;48.554;8.820;2023-11-22T11:05:49;96740.19;;;2.73;72.81
8717;BME280;4395;48.554;8.820;2023-11-22T11:08:00;96750.22;;;2.68;72.44
8717;BME280;4395;48.554;8.820;2023-11-22T11:10:05;96748.56;;;2.61;72.95
8717;BME280;4395;48.554;8.820;2023-11-22T11:12:18;96760.09;;;2.65;73.54
8717;BME280;4395;48.554;8.820;2023-11-22T11:14:23;96761.91;;;2.71;72.80
8717;BME280;4395;48.554;8.820;2023-11-22T11:16:26;96760.63;;;2.81;73.59
8717;BME280;4395;48.554;8.820;2023-11-22T11:18:30;96760.28;;;2.84;73.13
8717;BME280;4395;48.554;8.820;2023-11-22T11:20:44;96761.09;;;2.85;73.57
8717;BME280;4395;48.554;8.820;2023-11-22T11:22:49;96760.38;;;2.55;72.92
8717;BME280;4395;48.554;8.820;2023-11-22T11:25:00;96755.06;;;2.42;73.24
8717;BME280;4395;48.554;8.820;2023-11-22T11:27:06;96768.94;;;2.41;74.06
8717;BME280;4395;48.554;8.820;2023-11-22T11:29:29;96763.84;;;2.47;74.15
8717;BME280;4395;48.554;8.820;2023-11-22T11:31:32;96768.94;;;2.41;73.70
8717;BME280;4395;48.554;8.820;2023-11-22T11:33:53;96769.63;;;2.35;74.01
8717;BME280;4395;48.554;8.820;2023-11-22T11:35:57;96770.00;;;2.32;74.08
8717;BME280;4395;48.554;8.820;2023-11-22T11:38:04;96776.53;;;2.34;74.06
8717;BME280;4395;48.554;8.820;2023-11-22T11:40:25;96769.28;;;2.38;74.14
8717;BME280;4395;48.554;8.820;2023-11-22T11:42:27;96771.84;;;2.38;73.75
8717;BME280;4395;48.554;8.820;2023-11-22T11:44:31;96770.00;;;2.32;74.05
8717;BME280;4395;48.554;8.820;2023-11-22T11:46:36;96770.00;;;2.32;73.93